createdAt,value
2023-11-21T00:00:04.503Z,12.67
2023-11-21T00:04:07.501Z,12.43
2023-11-21T00:08:09.310Z,12.63
2023-11-21T00:12:14.524Z,12.50
2023-11-21T00:16:15.689Z,11.70
2023-11-21T00:20:16.949Z,11.53
2023-11-21T00:24:18.204Z,11.17
2023-11-21T00:28:19.364Z,10.33
2023-11-21T00:32:20.351Z,10.20
2023-11-21T00:36:21.480Z,9.37
2023-11-21T00:40:23.045Z,9.07
2023-11-21T00:44:24.029Z,8.70
2023-11-21T00:48:25.034Z,9.13
2023-11-21T00:52:26.671Z,9.13
2023-11-21T00:56:28.154Z,9.17
2023-11-21T01:00:29.288Z,8.47
2023-11-21T01:04:30.374Z,8.50
2023-11-21T01:08:32.059Z,9.27
2023-11-21T01:12:33.270Z,8.00
2023-11-21T01:16:34.342Z,9.77
2023-11-21T01:20:35.585Z,10.23
2023-11-21T01:24:36.846Z,9.73
2023-11-21T01:28:37.875Z,9.47
2023-11-21T01:32:39.936Z,9.77
2023-11-21T01:36:41.150Z,10.40
2023-11-21T01:40:42.240Z,10.57
2023-11-21T01:44:43.594Z,12.90
2023-11-21T01:48:45.592Z,13.27
2023-11-21T01:52:47.666Z,11.83
2023-11-21T01:56:49.233Z,15.30
2023-11-21T02:00:51.526Z,16.10
2023-11-21T02:04:52.696Z,16.40
2023-11-21T02:08:53.728Z,17.80
2023-11-21T02:12:59.023Z,16.17
2023-11-21T02:17:01.611Z,16.67
2023-11-21T02:21:05.148Z,16.70
2023-11-21T02:25:08.222Z,13.50
2023-11-21T02:29:11.116Z,13.87
2023-11-21T02:33:12.908Z,15.43
2023-11-21T02:37:14.312Z,12.93
2023-11-21T02:41:15.277Z,10.67
2023-11-21T02:45:17.232Z,12.37
2023-11-21T02:49:18.410Z,13.23
2023-11-21T02:53:19.477Z,13.77
2023-11-21T02:57:20.714Z,14.63
2023-11-21T03:01:21.921Z,15.67
2023-11-21T03:05:23.079Z,17.97
2023-11-21T03:09:24.211Z,17.20
2023-11-21T03:13:25.357Z,17.33
2023-11-21T03:17:26.442Z,17.33
2023-11-21T03:21:27.695Z,20.80
2023-11-21T03:25:29.169Z,22.40
2023-11-21T03:29:30.308Z,20.93
2023-11-21T03:33:31.316Z,19.57
2023-11-21T03:37:32.525Z,17.70
2023-11-21T03:41:34.556Z,14.57
2023-11-21T03:45:35.704Z,16.20
2023-11-21T03:49:36.972Z,17.90
2023-11-21T03:53:38.193Z,17.87
2023-11-21T03:57:39.361Z,17.50
2023-11-21T04:01:40.386Z,17.83
2023-11-21T04:05:41.749Z,15.77
2023-11-21T04:09:43.065Z,17.90
2023-11-21T04:13:44.479Z,15.87
2023-11-21T04:17:46.073Z,15.03
2023-11-21T04:21:47.104Z,15.27
2023-11-21T04:25:48.158Z,14.63
2023-11-21T04:29:49.147Z,16.13
2023-11-21T04:33:50.307Z,12.13
2023-11-21T04:37:51.601Z,11.87
2023-11-21T04:41:52.834Z,9.30
2023-11-21T04:45:55.289Z,9.17
2023-11-21T04:49:56.524Z,7.73
2023-11-21T04:53:57.596Z,9.37
2023-11-21T04:57:58.710Z,7.90
2023-11-21T05:02:00.730Z,10.57
2023-11-21T05:06:01.921Z,7.13
2023-11-21T05:10:06.797Z,7.17
2023-11-21T05:14:07.834Z,7.33
2023-11-21T05:18:09.048Z,8.20
2023-11-21T05:22:12.026Z,7.57
2023-11-21T05:26:13.052Z,7.40
2023-11-21T05:30:14.660Z,5.27
2023-11-21T05:34:18.200Z,6.63
2023-11-21T05:38:18.992Z,6.50
2023-11-21T05:42:21.492Z,7.47
2023-11-21T05:46:22.592Z,7.83
2023-11-21T05:50:24.049Z,9.07
2023-11-21T05:54:25.141Z,10.47
2023-11-21T05:58:26.482Z,13.07
2023-11-21T06:02:27.689Z,12.20
2023-11-21T06:06:28.956Z,12.23
2023-11-21T06:10:30.336Z,10.77
2023-11-21T06:14:33.464Z,11.53
2023-11-21T06:18:35.663Z,12.07
2023-11-21T06:22:38.534Z,11.37
2023-11-21T06:26:39.521Z,10.70
2023-11-21T06:30:40.974Z,9.90
2023-11-21T06:34:42.387Z,7.93
2023-11-21T06:38:43.442Z,9.67
2023-11-21T06:42:44.994Z,10.87
2023-11-21T06:46:46.272Z,9.37
2023-11-21T06:50:47.311Z,9.57
2023-11-21T06:54:51.073Z,9.77
2023-11-21T06:58:54.230Z,9.07
2023-11-21T07:02:55.976Z,9.67
2023-11-21T07:06:57.191Z,10.83
2023-11-21T07:10:58.306Z,11.30
2023-11-21T07:14:59.471Z,13.33
2023-11-21T07:19:00.476Z,12.63
2023-11-21T07:23:01.737Z,11.93
2023-11-21T07:27:04.531Z,11.50
2023-11-21T07:31:06.055Z,12.90
2023-11-21T07:35:08.594Z,14.30
2023-11-21T07:39:10.258Z,13.17
2023-11-21T07:43:11.526Z,13.47
2023-11-21T07:47:12.636Z,11.53
2023-11-21T07:51:14.046Z,13.43
2023-11-21T07:55:15.321Z,12.20
2023-11-21T07:59:17.768Z,17.03
2023-11-21T08:03:18.950Z,17.07
2023-11-21T08:07:20.200Z,15.37
2023-11-21T08:11:23.465Z,13.93
2023-11-21T08:15:24.807Z,14.53
2023-11-21T08:19:26.043Z,13.37
2023-11-21T08:23:27.317Z,13.33
2023-11-21T08:27:28.324Z,11.43
2023-11-21T08:31:29.604Z,12.93
2023-11-21T08:35:32.077Z,12.30
2023-11-21T08:39:33.255Z,11.40
2023-11-21T08:43:40.249Z,11.70
2023-11-21T08:47:41.556Z,11.77
2023-11-21T08:51:42.494Z,10.50
2023-11-21T08:55:44.624Z,10.73
2023-11-21T08:59:45.710Z,11.67
2023-11-21T09:03:47.769Z,11.83
2023-11-21T09:07:49.329Z,9.03
2023-11-21T09:11:50.318Z,9.73
2023-11-21T09:15:51.716Z,8.83
2023-11-21T09:19:52.844Z,8.03
2023-11-21T09:23:54.807Z,8.53
2023-11-21T09:27:57.802Z,7.13
2023-11-21T09:32:00.018Z,8.33
2023-11-21T09:36:01.788Z,8.20
2023-11-21T09:40:03.439Z,8.20
2023-11-21T09:44:08.264Z,8.53
2023-11-21T09:48:11.967Z,8.07
2023-11-21T09:52:18.213Z,9.57
2023-11-21T09:56:21.390Z,7.83
2023-11-21T10:00:24.238Z,7.87
2023-11-21T10:04:27.311Z,6.30
2023-11-21T10:08:39.269Z,7.27
2023-11-21T10:12:33.273Z,6.80
2023-11-21T10:16:34.796Z,6.20
2023-11-21T10:20:37.854Z,7.20
2023-11-21T10:24:45.323Z,6.43
2023-11-21T10:28:42.136Z,5.47
2023-11-21T10:32:43.776Z,6.10
2023-11-21T10:36:45.667Z,7.10
2023-11-21T10:40:47.340Z,6.47
2023-11-21T10:44:48.978Z,6.10
2023-11-21T10:48:55.247Z,6.60
2023-11-21T10:52:56.565Z,6.63
2023-11-21T10:57:00.980Z,6.40
2023-11-21T11:01:05.839Z,6.17
2023-11-21T11:05:07.443Z,6.90
2023-11-21T11:09:11.826Z,6.33
2023-11-21T11:13:15.155Z,6.50
2023-11-21T11:17:17.713Z,6.43
2023-11-21T11:21:39.355Z,6.70
2023-11-21T11:25:50.238Z,6.73
2023-11-21T11:29:57.908Z,6.73
2023-11-21T11:34:20.746Z,6.27
2023-11-21T11:38:23.779Z,7.20
2023-11-21T11:42:24.978Z,7.13
2023-11-21T11:46:48.500Z,6.03
2023-11-21T11:51:05.755Z,6.50
2023-11-21T11:55:10.620Z,5.93
2023-11-21T11:59:11.642Z,5.40
2023-11-21T12:03:14.216Z,5.53
2023-11-21T12:07:15.548Z,5.63
2023-11-21T12:11:18.409Z,7.93
2023-11-21T12:15:20.935Z,6.07
2023-11-21T12:19:22.824Z,6.27
2023-11-21T12:23:23.979Z,6.60
2023-11-21T12:27:25.113Z,7.17
2023-11-21T12:31:26.990Z,6.90
2023-11-21T12:35:31.444Z,6.63
2023-11-21T12:39:32.568Z,6.67
2023-11-21T12:43:35.473Z,7.80
2023-11-21T12:47:36.630Z,6.30
2023-11-21T12:51:37.841Z,6.47
2023-11-21T12:55:39.906Z,6.50
2023-11-21T12:59:43.040Z,6.33
2023-11-21T13:03:48.132Z,6.20
2023-11-21T13:07:51.003Z,7.13
2023-11-21T13:11:55.917Z,7.77
2023-11-21T13:16:01.560Z,7.53
2023-11-21T13:20:04.979Z,6.53
2023-11-21T13:24:06.908Z,6.97
2023-11-21T13:28:08.780Z,7.50
2023-11-21T13:32:11.858Z,6.23
2023-11-21T13:36:14.942Z,8.17
2023-11-21T13:40:18.406Z,7.47
2023-11-21T13:44:30.435Z,31.93
2023-11-21T13:48:45.668Z,8.37
2023-11-21T13:52:46.892Z,7.67
2023-11-21T13:56:49.857Z,7.73
2023-11-21T14:00:57.378Z,8.50
2023-11-21T14:05:00.547Z,8.40
2023-11-21T14:09:06.227Z,8.93
2023-11-21T14:13:07.211Z,9.90
2023-11-21T14:17:08.543Z,10.93
2023-11-21T14:21:11.277Z,10.40
2023-11-21T14:25:12.830Z,10.07
2023-11-21T14:29:17.484Z,10.57
2023-11-21T14:33:18.615Z,11.37
2023-11-21T14:37:20.559Z,11.47
2023-11-21T14:41:21.576Z,10.87
2023-11-21T14:45:24.522Z,10.27
2023-11-21T14:49:28.112Z,8.47
2023-11-21T14:53:46.263Z,10.10
2023-11-21T14:57:50.294Z,8.63
2023-11-21T15:01:56.588Z,12.83
2023-11-21T15:05:59.968Z,10.83
2023-11-21T15:10:01.055Z,10.47
2023-11-21T15:14:04.257Z,34.93
2023-11-21T15:18:05.350Z,12.97
2023-11-21T15:22:08.056Z,12.47
2023-11-21T15:26:10.529Z,13.87
2023-11-21T15:30:12.068Z,13.27
2023-11-21T15:34:13.114Z,14.57
2023-11-21T15:38:34.266Z,13.13
2023-11-21T15:42:37.285Z,14.43
2023-11-21T15:46:40.411Z,12.03
2023-11-21T15:50:41.792Z,12.60
2023-11-21T15:54:44.720Z,12.77
2023-11-21T15:58:47.837Z,16.70
2023-11-21T16:02:49.804Z,14.27
2023-11-21T16:06:51.052Z,13.10
2023-11-21T16:10:52.091Z,12.40
2023-11-21T16:14:53.098Z,14.03
2023-11-21T16:18:54.333Z,12.47
2023-11-21T16:22:55.500Z,12.80
2023-11-21T16:26:57.082Z,12.33
2023-11-21T16:30:58.198Z,10.07
2023-11-21T16:35:00.463Z,8.20
2023-11-21T16:39:01.528Z,9.83
2023-11-21T16:43:03.233Z,8.73
2023-11-21T16:47:07.505Z,9.47
2023-11-21T16:51:10.533Z,8.07
2023-11-21T16:55:12.201Z,7.73
2023-11-21T16:59:13.537Z,7.63
2023-11-21T17:03:14.614Z,8.03
2023-11-21T17:07:16.788Z,9.17
2023-11-21T17:11:18.245Z,7.63
2023-11-21T17:15:20.608Z,8.07
2023-11-21T17:19:21.633Z,8.30
2023-11-21T17:23:22.691Z,8.77
2023-11-21T17:27:23.919Z,8.53
2023-11-21T17:31:25.291Z,8.57
2023-11-21T17:35:26.644Z,9.20
2023-11-21T17:39:28.086Z,9.77
2023-11-21T17:43:29.168Z,9.27
2023-11-21T17:47:30.378Z,8.67
2023-11-21T17:51:31.614Z,8.97
2023-11-21T17:55:32.987Z,7.83
2023-11-21T17:59:34.573Z,7.63
2023-11-21T18:03:38.152Z,6.13
2023-11-21T18:07:39.777Z,7.13
2023-11-21T18:11:41.551Z,5.80
2023-11-21T18:15:43.151Z,7.07
2023-11-21T18:19:44.924Z,7.67
2023-11-21T18:23:46.604Z,6.87
2023-11-21T18:27:47.633Z,7.40
2023-11-21T18:31:48.682Z,7.77
2023-11-21T18:35:50.285Z,6.40
2023-11-21T18:39:51.379Z,7.80
2023-11-21T18:43:54.332Z,7.43
2023-11-21T18:47:56.569Z,5.70
2023-11-21T18:51:57.955Z,6.40
2023-11-21T18:55:59.174Z,5.87
2023-11-21T19:00:00.361Z,6.70
2023-11-21T19:04:01.664Z,8.03
2023-11-21T19:08:03.341Z,7.33
2023-11-21T19:12:05.406Z,8.37
2023-11-21T19:16:06.881Z,8.77
2023-11-21T19:20:10.721Z,6.97
2023-11-21T19:24:12.096Z,8.97
2023-11-21T19:28:13.747Z,6.77
2023-11-21T19:32:14.755Z,7.93
2023-11-21T19:36:19.513Z,8.27
2023-11-21T19:40:22.442Z,7.73
2023-11-21T19:44:23.508Z,6.80
2023-11-21T19:48:26.342Z,8.87
2023-11-21T19:52:27.448Z,7.27
2023-11-21T19:56:28.681Z,8.87
2023-11-21T20:00:29.812Z,8.70
2023-11-21T20:04:30.816Z,8.00
2023-11-21T20:08:34.045Z,9.20
2023-11-21T20:12:35.198Z,9.67
2023-11-21T20:16:40.978Z,7.30
2023-11-21T20:20:41.990Z,9.30
2023-11-21T20:24:45.265Z,8.47
2023-11-21T20:28:46.282Z,10.17
2023-11-21T20:32:47.265Z,8.83
2023-11-21T20:36:49.614Z,8.37
2023-11-21T20:40:50.750Z,9.00
2023-11-21T20:44:51.757Z,6.17
2023-11-21T20:48:55.272Z,8.90
2023-11-21T20:52:55.677Z,7.30
2023-11-21T20:56:57.397Z,8.73
2023-11-21T21:00:58.785Z,9.40
2023-11-21T21:04:59.817Z,6.97
2023-11-21T21:09:02.154Z,7.97
2023-11-21T21:13:03.202Z,8.80
2023-11-21T21:17:04.668Z,9.30
2023-11-21T21:21:05.698Z,8.87
2023-11-21T21:25:07.461Z,8.83
2023-11-21T21:29:09.601Z,9.10
2023-11-21T21:33:10.986Z,9.97
2023-11-21T21:37:12.058Z,8.43
2023-11-21T21:41:13.916Z,8.87
2023-11-21T21:45:15.173Z,7.97
2023-11-21T21:49:16.729Z,7.93
2023-11-21T21:53:17.884Z,8.60
2023-11-21T21:57:19.004Z,9.00
2023-11-21T22:01:20.179Z,8.80
2023-11-21T22:05:21.287Z,9.27
2023-11-21T22:09:22.855Z,7.00
2023-11-21T22:13:24.191Z,8.03
2023-11-21T22:17:25.280Z,6.67
2023-11-21T22:21:26.777Z,6.80
2023-11-21T22:25:28.876Z,7.30
2023-11-21T22:29:29.932Z,7.50
2023-11-21T22:33:30.981Z,7.50
2023-11-21T22:37:32.064Z,7.67
2023-11-21T22:41:33.095Z,6.57
2023-11-21T22:45:34.147Z,7.97
2023-11-21T22:49:35.345Z,7.30
2023-11-21T22:53:38.173Z,6.70
2023-11-21T22:57:39.175Z,7.00
2023-11-21T23:01:40.252Z,7.10
2023-11-21T23:05:41.551Z,7.30
2023-11-21T23:09:42.709Z,6.87
2023-11-21T23:13:43.842Z,8.13
2023-11-21T23:17:44.882Z,7.17
2023-11-21T23:21:46.191Z,7.90
2023-11-21T23:25:48.651Z,6.87
2023-11-21T23:29:51.728Z,7.43
2023-11-21T23:33:52.816Z,8.70
2023-11-21T23:37:54.067Z,7.53
2023-11-21T23:41:55.047Z,8.13
2023-11-21T23:45:56.655Z,7.67
2023-11-21T23:49:58.457Z,8.93
2023-11-21T23:53:59.668Z,8.10
2023-11-21T23:58:01.211Z,11.63
